createdAt,value
2023-05-20T00:00:56.211Z,65.83
2023-05-20T00:01:56.148Z,65.22
2023-05-20T00:02:56.175Z,65.73
2023-05-20T00:03:56.199Z,65.94
2023-05-20T00:04:56.213Z,65.94
2023-05-20T00:05:56.033Z,65.73
2023-05-20T00:06:56.068Z,65.83
2023-05-20T00:07:56.075Z,66.65
2023-05-20T00:08:56.077Z,66.24
2023-05-20T00:09:55.964Z,66.68
2023-05-20T00:10:55.973Z,66.58
2023-05-20T00:11:55.902Z,66.68
2023-05-20T00:12:55.930Z,66.68
2023-05-20T00:13:55.891Z,66.07
2023-05-20T00:14:56.113Z,66.88
2023-05-20T00:15:55.901Z,66.68
2023-05-20T00:16:55.815Z,66.07
2023-05-20T00:17:55.868Z,65.36
2023-05-20T00:18:55.752Z,65.86
2023-05-20T00:19:55.832Z,65.97
2023-05-20T00:20:55.718Z,65.97
2023-05-20T00:21:55.753Z,65.86
2023-05-20T00:22:55.679Z,65.77
2023-05-20T00:23:55.636Z,65.97
2023-05-20T00:24:55.669Z,66.07
2023-05-20T00:25:56.992Z,65.89
2023-05-20T00:26:55.682Z,66.82
2023-05-20T00:27:55.558Z,66.00
2023-05-20T00:28:55.529Z,66.91
2023-05-20T00:29:55.606Z,66.50
2023-05-20T00:30:55.502Z,66.82
2023-05-20T00:31:55.574Z,66.82
2023-05-20T00:32:55.480Z,66.82
2023-05-20T00:33:55.410Z,66.50
2023-05-20T00:34:55.390Z,66.71
2023-05-20T00:35:55.478Z,67.12
2023-05-20T00:36:55.339Z,66.71
2023-05-20T00:37:55.383Z,67.22
2023-05-20T00:38:55.324Z,67.02
2023-05-20T00:39:55.372Z,67.02
2023-05-20T00:40:55.257Z,66.91
2023-05-20T00:41:55.443Z,67.12
2023-05-20T00:42:55.219Z,67.05
2023-05-20T00:43:55.380Z,68.24
2023-05-20T00:44:55.181Z,67.73
2023-05-20T00:45:55.210Z,67.93
2023-05-20T00:46:55.123Z,67.66
2023-05-20T00:47:55.253Z,68.37
2023-05-20T00:48:55.074Z,68.27
2023-05-20T00:49:55.058Z,68.48
2023-05-20T00:50:55.027Z,68.07
2023-05-20T00:51:55.040Z,68.17
2023-05-20T00:52:54.991Z,67.35
2023-05-20T00:53:55.057Z,67.55
2023-05-20T00:54:54.955Z,67.86
2023-05-20T00:55:54.966Z,68.51
2023-05-20T00:56:54.890Z,68.40
2023-05-20T00:57:54.979Z,68.61
2023-05-20T00:58:54.856Z,68.51
2023-05-20T00:59:54.888Z,68.40
2023-05-20T01:00:54.799Z,68.30
2023-05-20T01:01:54.823Z,68.81
2023-05-20T01:02:54.879Z,68.10
2023-05-20T01:03:54.876Z,67.99
2023-05-20T01:04:54.704Z,67.29
2023-05-20T01:05:54.706Z,68.30
2023-05-20T01:06:54.661Z,67.99
2023-05-20T01:07:54.737Z,68.51
2023-05-20T01:08:54.618Z,68.30
2023-05-20T01:09:54.651Z,68.81
2023-05-20T01:10:54.584Z,68.61
2023-05-20T01:11:54.560Z,68.10
2023-05-20T01:12:54.531Z,68.51
2023-05-20T01:13:54.577Z,68.40
2023-05-20T01:14:54.479Z,67.79
2023-05-20T01:15:54.505Z,68.51
2023-05-20T01:16:54.439Z,68.20
2023-05-20T01:17:54.531Z,69.22
2023-05-20T01:18:54.424Z,68.91
2023-05-20T01:19:54.425Z,68.61
2023-05-20T01:20:54.342Z,68.51
2023-05-20T01:21:54.337Z,68.91
2023-05-20T01:22:54.311Z,68.81
2023-05-20T01:23:54.373Z,68.81
2023-05-20T01:24:54.252Z,68.84
2023-05-20T01:25:54.268Z,68.71
2023-05-20T01:26:54.269Z,69.46
2023-05-20T01:27:54.202Z,69.53
2023-05-20T01:28:54.176Z,68.81
2023-05-20T01:29:54.137Z,69.56
2023-05-20T01:30:54.249Z,69.25
2023-05-20T01:31:54.131Z,69.56
2023-05-20T01:32:54.182Z,69.35
2023-05-20T01:33:54.043Z,69.90
2023-05-20T01:34:54.125Z,69.86
2023-05-20T01:35:54.008Z,69.25
2023-05-20T01:36:54.029Z,69.86
2023-05-20T01:37:53.970Z,69.76
2023-05-20T01:38:53.941Z,69.76
2023-05-20T01:39:53.907Z,69.90
2023-05-20T01:40:53.958Z,69.69
2023-05-20T01:41:53.865Z,70.17
2023-05-20T01:42:53.857Z,70.78
2023-05-20T01:43:53.819Z,69.90
2023-05-20T01:44:53.893Z,70.72
2023-05-20T01:45:53.784Z,69.96
2023-05-20T01:46:53.810Z,70.10
2023-05-20T01:47:53.808Z,70.89
2023-05-20T01:48:53.813Z,70.81
2023-05-20T01:49:53.682Z,70.68
2023-05-20T01:50:53.800Z,70.57
2023-05-20T01:51:53.632Z,70.92
2023-05-20T01:52:53.742Z,71.02
2023-05-20T01:53:53.588Z,71.22
2023-05-20T01:54:53.690Z,71.33
2023-05-20T01:55:53.554Z,71.22
2023-05-20T01:56:53.569Z,70.92
2023-05-20T01:57:53.509Z,71.22
2023-05-20T01:58:53.473Z,71.22
2023-05-20T01:59:53.455Z,71.53
2023-05-20T02:00:53.555Z,71.22
2023-05-20T02:01:53.441Z,70.92
2023-05-20T02:02:53.524Z,71.53
2023-05-20T02:03:53.372Z,71.63
2023-05-20T02:04:53.418Z,72.04
2023-05-20T02:05:53.382Z,71.63
2023-05-20T02:06:53.333Z,71.67
2023-05-20T02:07:53.297Z,71.22
2023-05-20T02:08:53.344Z,72.14
2023-05-20T02:09:53.220Z,71.67
2023-05-20T02:10:53.258Z,71.87
2023-05-20T02:11:53.176Z,71.67
2023-05-20T02:12:53.272Z,71.67
2023-05-20T02:13:53.131Z,71.87
2023-05-20T02:14:53.119Z,72.58
2023-05-20T02:15:53.192Z,72.17
2023-05-20T02:16:53.184Z,72.28
2023-05-20T02:17:53.117Z,72.38
2023-05-20T02:18:53.164Z,72.58
2023-05-20T02:19:53.004Z,72.79
2023-05-20T02:20:52.971Z,72.69
2023-05-20T02:21:53.030Z,73.30
2023-05-20T02:22:52.936Z,72.79
2023-05-20T02:23:52.942Z,72.69
2023-05-20T02:24:52.878Z,72.89
2023-05-20T02:25:52.970Z,72.99
2023-05-20T02:26:52.838Z,72.99
2023-05-20T02:27:52.870Z,73.30
2023-05-20T02:28:52.800Z,72.89
2023-05-20T02:29:52.858Z,72.89
2023-05-20T02:30:52.733Z,73.30
2023-05-20T02:31:52.797Z,72.99
2023-05-20T02:32:52.734Z,72.99
2023-05-20T02:33:52.809Z,73.54
2023-05-20T02:34:52.650Z,73.44
2023-05-20T02:35:52.627Z,73.33
2023-05-20T02:36:52.609Z,73.03
2023-05-20T02:37:52.655Z,73.64
2023-05-20T02:38:52.558Z,73.54
2023-05-20T02:39:52.549Z,73.54
2023-05-20T02:40:52.509Z,73.74
2023-05-20T02:41:52.586Z,73.94
2023-05-20T02:42:52.487Z,73.94
2023-05-20T02:43:52.487Z,73.84
2023-05-20T02:44:52.416Z,73.84
2023-05-20T02:45:52.551Z,73.44
2023-05-20T02:46:52.371Z,74.05
2023-05-20T02:47:52.432Z,73.94
2023-05-20T02:48:52.317Z,74.01
2023-05-20T02:49:52.323Z,74.25
2023-05-20T02:50:52.270Z,73.94
2023-05-20T02:51:52.246Z,74.25
2023-05-20T02:52:52.250Z,73.84
2023-05-20T02:53:52.246Z,74.35
2023-05-20T02:54:52.176Z,74.25
2023-05-20T02:55:52.255Z,74.46
2023-05-20T02:56:52.141Z,74.46
2023-05-20T02:57:52.169Z,75.07
2023-05-20T02:58:52.084Z,74.87
2023-05-20T02:59:52.081Z,75.17
2023-05-20T03:00:52.043Z,74.35
2023-05-20T03:01:52.253Z,74.49
2023-05-20T03:02:52.125Z,74.66
2023-05-20T03:03:52.013Z,74.97
2023-05-20T03:04:52.172Z,75.17
2023-05-20T03:05:52.024Z,75.27
2023-05-20T03:06:51.896Z,75.17
2023-05-20T03:07:51.894Z,75.58
2023-05-20T03:08:51.848Z,75.31
2023-05-20T03:09:51.844Z,75.17
2023-05-20T03:10:51.833Z,75.51
2023-05-20T03:11:51.860Z,75.37
2023-05-20T03:12:51.770Z,75.48
2023-05-20T03:13:51.785Z,75.48
2023-05-20T03:14:51.708Z,75.27
2023-05-20T03:15:51.838Z,75.71
2023-05-20T03:16:51.663Z,75.62
2023-05-20T03:17:51.758Z,75.31
2023-05-20T03:18:51.632Z,75.62
2023-05-20T03:19:51.631Z,75.41
2023-05-20T03:20:51.569Z,76.03
2023-05-20T03:21:51.640Z,75.92
2023-05-20T03:22:51.546Z,76.03
2023-05-20T03:23:51.490Z,75.82
2023-05-20T03:24:51.540Z,75.82
2023-05-20T03:25:51.446Z,75.78
2023-05-20T03:26:51.457Z,75.71
2023-05-20T03:27:51.409Z,75.82
2023-05-20T03:28:51.385Z,76.12
2023-05-20T03:29:51.382Z,76.03
2023-05-20T03:30:51.391Z,76.23
2023-05-20T03:31:51.460Z,76.53
2023-05-20T03:32:51.449Z,76.43
2023-05-20T03:33:51.273Z,76.12
2023-05-20T03:34:51.311Z,76.33
2023-05-20T03:35:51.210Z,76.53
2023-05-20T03:36:51.224Z,76.94
2023-05-20T03:37:51.177Z,76.94
2023-05-20T03:38:51.241Z,76.94
2023-05-20T03:39:51.114Z,76.84
2023-05-20T03:40:51.159Z,77.04
2023-05-20T03:41:51.066Z,76.74
2023-05-20T03:42:51.166Z,77.25
2023-05-20T03:43:51.038Z,76.84
2023-05-20T03:44:51.004Z,76.43
2023-05-20T03:45:50.972Z,76.94
2023-05-20T03:46:51.057Z,76.94
2023-05-20T03:47:50.967Z,77.04
2023-05-20T03:48:51.014Z,76.43
2023-05-20T03:49:50.869Z,76.64
2023-05-20T03:50:50.934Z,77.45
2023-05-20T03:51:50.828Z,77.35
2023-05-20T03:52:50.851Z,77.56
2023-05-20T03:53:50.779Z,77.45
2023-05-20T03:54:50.852Z,77.35
2023-05-20T03:55:50.744Z,76.64
2023-05-20T03:56:50.765Z,76.94
2023-05-20T03:57:50.693Z,77.04
2023-05-20T03:58:50.785Z,77.35
2023-05-20T03:59:50.636Z,76.94
2023-05-20T04:00:50.613Z,78.17
2023-05-20T04:01:50.651Z,77.25
2023-05-20T04:02:50.723Z,77.45
2023-05-20T04:03:50.750Z,78.07
2023-05-20T04:04:50.618Z,77.35
2023-05-20T04:05:50.513Z,77.76
2023-05-20T04:06:50.529Z,77.86
2023-05-20T04:07:50.467Z,78.17
2023-05-20T04:08:50.550Z,78.07
2023-05-20T04:09:50.399Z,77.56
2023-05-20T04:10:50.485Z,77.86
2023-05-20T04:11:50.353Z,77.15
2023-05-20T04:12:50.370Z,78.27
2023-05-20T04:13:50.301Z,77.86
2023-05-20T04:14:50.375Z,78.38
2023-05-20T04:15:50.261Z,78.17
2023-05-20T04:16:50.311Z,78.17
2023-05-20T04:17:50.329Z,78.88
2023-05-20T04:18:50.194Z,78.27
2023-05-20T04:19:50.196Z,78.03
2023-05-20T04:20:50.155Z,78.03
2023-05-20T04:21:50.125Z,77.97
2023-05-20T04:22:50.109Z,77.86
2023-05-20T04:23:50.155Z,78.07
2023-05-20T04:24:50.047Z,78.07
2023-05-20T04:25:50.065Z,78.75
2023-05-20T04:26:50.027Z,78.78
2023-05-20T04:27:49.981Z,78.75
2023-05-20T04:28:49.995Z,78.64
2023-05-20T04:29:49.921Z,78.13
2023-05-20T04:30:49.977Z,78.68
2023-05-20T04:31:49.925Z,78.07
2023-05-20T04:32:49.917Z,77.72
2023-05-20T04:33:49.821Z,78.85
2023-05-20T04:34:49.909Z,78.88
2023-05-20T04:35:49.782Z,78.85
2023-05-20T04:36:49.828Z,78.64
2023-05-20T04:37:49.835Z,77.83
2023-05-20T04:38:49.734Z,78.44
2023-05-20T04:39:49.744Z,77.83
2023-05-20T04:40:49.657Z,78.54
2023-05-20T04:41:49.658Z,78.64
2023-05-20T04:42:49.636Z,78.75
2023-05-20T04:43:49.677Z,78.75
2023-05-20T04:44:49.583Z,78.75
2023-05-20T04:45:49.612Z,78.44
2023-05-20T04:46:49.516Z,78.44
2023-05-20T04:47:49.622Z,78.34
2023-05-20T04:48:49.502Z,78.64
2023-05-20T04:49:49.512Z,78.64
2023-05-20T04:50:49.416Z,78.44
2023-05-20T04:51:49.414Z,78.85
2023-05-20T04:52:49.389Z,78.30
2023-05-20T04:53:49.372Z,78.50
2023-05-20T04:54:49.333Z,77.79
2023-05-20T04:55:49.338Z,78.50
2023-05-20T04:56:49.279Z,78.50
2023-05-20T04:57:49.367Z,78.41
2023-05-20T04:58:49.244Z,78.50
2023-05-20T04:59:49.265Z,78.41
2023-05-20T05:00:49.197Z,78.71
2023-05-20T05:01:49.223Z,78.81
2023-05-20T05:02:49.189Z,78.50
2023-05-20T05:03:49.192Z,78.67
2023-05-20T05:04:49.116Z,78.37
2023-05-20T05:05:49.112Z,78.37
2023-05-20T05:06:49.046Z,78.81
2023-05-20T05:07:49.121Z,78.57
2023-05-20T05:08:49.000Z,77.86
2023-05-20T05:09:48.970Z,78.27
2023-05-20T05:10:48.950Z,78.77
2023-05-20T05:11:48.953Z,77.86
2023-05-20T05:12:48.911Z,77.75
2023-05-20T05:13:48.978Z,78.77
2023-05-20T05:14:48.870Z,78.47
2023-05-20T05:15:48.914Z,78.27
2023-05-20T05:16:48.807Z,78.06
2023-05-20T05:17:48.951Z,77.82
2023-05-20T05:18:48.798Z,78.16
2023-05-20T05:19:48.802Z,77.92
2023-05-20T05:20:48.716Z,77.86
2023-05-20T05:21:48.728Z,77.82
2023-05-20T05:22:48.683Z,77.72
2023-05-20T05:23:48.738Z,78.23
2023-05-20T05:24:48.625Z,78.64
2023-05-20T05:25:48.598Z,78.02
2023-05-20T05:26:48.573Z,78.02
2023-05-20T05:27:48.656Z,78.02
2023-05-20T05:28:48.522Z,77.92
2023-05-20T05:29:48.565Z,77.82
2023-05-20T05:30:48.599Z,77.72
2023-05-20T05:31:48.470Z,78.30
2023-05-20T05:32:48.568Z,78.09
2023-05-20T05:33:48.409Z,78.09
2023-05-20T05:34:48.400Z,77.48
2023-05-20T05:35:48.354Z,77.98
2023-05-20T05:36:48.342Z,77.78
2023-05-20T05:37:48.430Z,77.55
2023-05-20T05:38:48.285Z,77.58
2023-05-20T05:39:48.334Z,77.58
2023-05-20T05:40:48.249Z,76.22
2023-05-20T05:41:48.241Z,77.14
2023-05-20T05:42:48.268Z,77.14
2023-05-20T05:43:48.171Z,76.83
2023-05-20T05:44:48.164Z,76.62
2023-05-20T05:45:48.137Z,76.93
2023-05-20T05:46:48.133Z,76.32
2023-05-20T05:47:48.141Z,76.83
2023-05-20T05:48:48.096Z,77.40
2023-05-20T05:49:48.028Z,76.39
2023-05-20T05:50:48.120Z,77.30
2023-05-20T05:51:47.980Z,76.69
2023-05-20T05:52:48.019Z,76.39
2023-05-20T05:53:47.933Z,76.59
2023-05-20T05:54:47.933Z,76.49
2023-05-20T05:55:47.883Z,75.74
2023-05-20T05:56:47.941Z,75.84
2023-05-20T05:57:47.912Z,76.15
2023-05-20T05:58:47.867Z,76.56
2023-05-20T05:59:47.808Z,75.74
2023-05-20T06:00:47.920Z,76.04
2023-05-20T06:01:47.804Z,75.84
2023-05-20T06:02:47.908Z,75.64
2023-05-20T06:03:47.797Z,76.04
2023-05-20T06:04:47.708Z,76.04
2023-05-20T06:05:47.654Z,75.74
2023-05-20T06:06:47.707Z,76.62
2023-05-20T06:07:47.726Z,76.35
2023-05-20T06:08:47.581Z,76.62
2023-05-20T06:09:47.640Z,76.01
2023-05-20T06:10:47.552Z,75.81
2023-05-20T06:11:47.540Z,75.50
2023-05-20T06:12:47.518Z,75.20
2023-05-20T06:13:47.569Z,75.50
2023-05-20T06:14:47.445Z,75.40
2023-05-20T06:15:47.469Z,75.67
2023-05-20T06:16:47.440Z,75.70
2023-05-20T06:17:47.552Z,75.37
2023-05-20T06:18:47.419Z,75.77
2023-05-20T06:19:47.401Z,75.37
2023-05-20T06:20:47.301Z,75.37
2023-05-20T06:21:47.301Z,74.85
2023-05-20T06:22:47.285Z,74.92
2023-05-20T06:23:47.245Z,75.12
2023-05-20T06:24:47.213Z,74.82
2023-05-20T06:25:47.250Z,74.65
2023-05-20T06:26:47.170Z,74.31
2023-05-20T06:27:47.243Z,74.11
2023-05-20T06:28:47.133Z,74.62
2023-05-20T06:29:47.183Z,74.82
2023-05-20T06:30:47.127Z,74.82
2023-05-20T06:31:47.089Z,74.82
2023-05-20T06:32:47.075Z,74.52
2023-05-20T06:33:47.093Z,74.38
2023-05-20T06:34:46.997Z,74.99
2023-05-20T06:35:47.000Z,73.97
2023-05-20T06:36:46.939Z,74.07
2023-05-20T06:37:47.056Z,73.67
2023-05-20T06:38:46.912Z,73.77
2023-05-20T06:39:46.874Z,73.53
2023-05-20T06:40:46.937Z,73.43
2023-05-20T06:41:46.849Z,73.43
2023-05-20T06:42:46.884Z,73.53
2023-05-20T06:43:46.794Z,73.39
2023-05-20T06:44:46.776Z,72.82
2023-05-20T06:45:46.751Z,72.69
2023-05-20T06:46:46.948Z,72.89
2023-05-20T06:47:46.729Z,73.09
2023-05-20T06:48:46.836Z,72.38
2023-05-20T06:49:47.644Z,72.38
2023-05-20T06:50:46.631Z,72.69
2023-05-20T06:51:46.649Z,71.97
2023-05-20T06:52:46.604Z,71.84
2023-05-20T06:53:46.651Z,71.13
2023-05-20T06:54:46.538Z,71.23
2023-05-20T06:55:46.526Z,71.03
2023-05-20T06:56:46.507Z,72.04
2023-05-20T06:57:46.577Z,71.84
2023-05-20T06:58:46.447Z,71.23
2023-05-20T06:59:46.504Z,71.00
2023-05-20T07:00:46.428Z,71.09
2023-05-20T07:01:46.428Z,70.96
2023-05-20T07:02:46.466Z,70.59
2023-05-20T07:03:46.490Z,71.26
2023-05-20T07:04:46.313Z,70.96
2023-05-20T07:05:46.336Z,70.35
2023-05-20T07:06:46.292Z,70.62
2023-05-20T07:07:46.349Z,71.33
2023-05-20T07:08:46.227Z,69.00
2023-05-20T07:09:46.272Z,68.60
2023-05-20T07:10:46.185Z,68.90
2023-05-20T07:11:46.167Z,68.77
2023-05-20T07:12:46.164Z,67.55
2023-05-20T07:13:46.309Z,68.06
2023-05-20T07:14:46.092Z,67.96
2023-05-20T07:15:46.243Z,66.33
2023-05-20T07:16:46.049Z,66.94
2023-05-20T07:17:46.182Z,66.94
2023-05-20T07:18:46.075Z,66.10
2023-05-20T07:19:46.120Z,66.71
2023-05-20T07:20:45.982Z,66.71
2023-05-20T07:21:46.050Z,67.93
2023-05-20T07:22:45.930Z,66.41
2023-05-20T07:23:46.063Z,67.01
2023-05-20T07:24:45.876Z,66.88
2023-05-20T07:25:45.963Z,66.67
2023-05-20T07:26:45.854Z,66.07
2023-05-20T07:27:45.828Z,65.36
2023-05-20T07:28:45.792Z,64.76
2023-05-20T07:29:45.889Z,64.04
2023-05-20T07:30:45.749Z,64.35
2023-05-20T07:31:45.873Z,65.06
2023-05-20T07:32:45.773Z,64.65
2023-05-20T07:33:45.811Z,64.45
2023-05-20T07:34:45.662Z,65.23
2023-05-20T07:35:45.765Z,64.83
2023-05-20T07:36:45.630Z,64.93
2023-05-20T07:37:45.615Z,64.52
2023-05-20T07:38:56.993Z,64.52
2023-05-20T07:39:45.565Z,64.83
2023-05-20T07:40:45.638Z,65.53
2023-05-20T07:41:45.525Z,64.73
2023-05-20T07:42:45.578Z,63.81
2023-05-20T07:43:45.481Z,63.21
2023-05-20T07:44:45.592Z,63.41
2023-05-20T07:45:45.554Z,64.29
2023-05-20T07:46:45.561Z,63.81
2023-05-20T07:47:45.469Z,62.77
2023-05-20T07:48:45.411Z,64.19
2023-05-20T07:49:45.350Z,63.76
2023-05-20T07:50:45.425Z,62.64
2023-05-20T07:51:45.305Z,63.45
2023-05-20T07:52:56.161Z,63.35
2023-05-20T07:53:45.273Z,62.04
2023-05-20T07:54:45.346Z,62.44
2023-05-20T07:55:45.222Z,62.74
2023-05-20T07:56:45.265Z,61.91
2023-05-20T07:57:45.206Z,62.62
2023-05-20T07:58:45.165Z,62.82
2023-05-20T07:59:45.226Z,61.37
2023-05-20T08:00:45.119Z,63.09
2023-05-20T08:01:45.201Z,60.87
2023-05-20T08:02:45.225Z,61.17
2023-05-20T08:03:45.119Z,60.26
2023-05-20T08:04:45.123Z,61.17
2023-05-20T08:05:45.022Z,60.77
2023-05-20T08:06:45.028Z,62.08
2023-05-20T08:07:44.998Z,61.07
2023-05-20T08:08:44.952Z,61.68
2023-05-20T08:09:45.051Z,60.87
2023-05-20T08:10:44.910Z,61.77
2023-05-20T08:11:47.213Z,61.17
2023-05-20T08:12:44.891Z,61.37
2023-05-20T08:13:44.884Z,61.65
2023-05-20T08:14:44.880Z,59.66
2023-05-20T08:15:44.820Z,61.68
2023-05-20T08:16:45.010Z,60.97
2023-05-20T08:17:44.807Z,61.85
2023-05-20T08:18:44.800Z,63.26
2023-05-20T08:19:44.727Z,62.12
2023-05-20T08:20:44.835Z,62.12
2023-05-20T08:21:44.686Z,61.61
2023-05-20T08:22:44.730Z,60.81
2023-05-20T08:23:44.657Z,61.32
2023-05-20T08:24:44.646Z,60.41
2023-05-20T08:25:44.620Z,59.57
2023-05-20T08:26:44.664Z,60.48
2023-05-20T08:27:44.583Z,61.39
2023-05-20T08:28:44.588Z,59.95
2023-05-20T08:29:44.529Z,59.44
2023-05-20T08:30:44.610Z,58.31
2023-05-20T08:31:44.546Z,58.54
2023-05-20T08:32:44.544Z,58.47
2023-05-20T08:33:44.471Z,59.57
2023-05-20T08:34:44.425Z,58.47
2023-05-20T08:35:44.531Z,59.97
2023-05-20T08:36:44.394Z,59.88
2023-05-20T08:37:44.438Z,62.16
2023-05-20T08:38:44.346Z,60.05
2023-05-20T08:39:44.329Z,59.75
2023-05-20T08:40:44.382Z,59.34
2023-05-20T08:41:44.291Z,59.75
2023-05-20T08:42:44.379Z,60.72
2023-05-20T08:43:44.252Z,60.02
2023-05-20T08:44:44.230Z,60.83
2023-05-20T08:45:44.282Z,60.09
2023-05-20T08:46:44.273Z,59.79
2023-05-20T08:47:44.366Z,58.98
2023-05-20T08:48:44.167Z,61.00
2023-05-20T08:49:44.141Z,58.68
2023-05-20T08:50:44.221Z,58.07
2023-05-20T08:51:44.093Z,58.18
2023-05-20T08:52:44.129Z,59.62
2023-05-20T08:53:44.063Z,58.11
2023-05-20T08:54:44.041Z,58.54
2023-05-20T08:55:44.060Z,60.42
2023-05-20T08:56:44.002Z,60.60
2023-05-20T08:57:44.084Z,59.99
2023-05-20T08:58:43.969Z,60.36
2023-05-20T08:59:43.946Z,59.26
2023-05-20T09:00:44.001Z,60.36
2023-05-20T09:01:43.939Z,60.33
2023-05-20T09:02:44.031Z,58.22
2023-05-20T09:03:43.875Z,59.00
2023-05-20T09:04:43.887Z,58.00
2023-05-20T09:05:43.923Z,58.42
2023-05-20T09:06:43.834Z,57.62
2023-05-20T09:07:43.833Z,56.29
2023-05-20T09:08:43.772Z,57.92
2023-05-20T09:09:43.754Z,56.92
2023-05-20T09:10:43.756Z,58.12
2023-05-20T09:11:43.769Z,57.82
2023-05-20T09:12:43.791Z,58.53
2023-05-20T09:13:43.682Z,57.59
2023-05-20T09:14:43.658Z,56.38
2023-05-20T09:15:43.685Z,57.79
2023-05-20T09:16:43.776Z,57.50
2023-05-20T09:17:43.718Z,57.79
2023-05-20T09:18:43.648Z,57.87
2023-05-20T09:19:43.566Z,57.67
2023-05-20T09:20:43.650Z,56.06
2023-05-20T09:21:43.529Z,56.46
2023-05-20T09:22:43.628Z,57.77
2023-05-20T09:23:43.489Z,56.56
2023-05-20T09:24:43.472Z,55.93
2023-05-20T09:25:43.566Z,57.14
2023-05-20T09:26:43.463Z,57.84
2023-05-20T09:27:43.464Z,55.83
2023-05-20T09:28:43.397Z,55.20
2023-05-20T09:29:43.394Z,55.80
2023-05-20T09:30:45.777Z,56.81
2023-05-20T09:31:43.380Z,56.51
2023-05-20T09:32:43.415Z,56.18
2023-05-20T09:33:43.310Z,55.98
2023-05-20T09:34:43.319Z,56.68
2023-05-20T09:35:43.399Z,56.18
2023-05-20T09:36:43.268Z,56.26
2023-05-20T09:37:43.325Z,57.03
2023-05-20T09:38:43.225Z,55.85
2023-05-20T09:39:43.246Z,55.43
2023-05-20T09:40:43.251Z,55.93
2023-05-20T09:41:43.158Z,58.40
2023-05-20T09:42:43.259Z,56.17
2023-05-20T09:43:43.162Z,55.77
2023-05-20T09:44:43.107Z,54.05
2023-05-20T09:45:43.175Z,55.35
2023-05-20T09:46:43.190Z,54.02
2023-05-20T09:47:43.087Z,53.89
2023-05-20T09:48:43.099Z,53.39
2023-05-20T09:49:43.124Z,52.80
2023-05-20T09:50:43.009Z,54.52
2023-05-20T09:51:43.023Z,53.82
2023-05-20T09:52:42.979Z,55.42
2023-05-20T09:53:43.061Z,55.52
2023-05-20T09:54:43.046Z,56.02
2023-05-20T09:55:42.916Z,55.79
2023-05-20T09:56:42.957Z,56.02
2023-05-20T09:57:42.892Z,55.40
2023-05-20T09:58:42.991Z,54.29
2023-05-20T09:59:42.901Z,54.72
2023-05-20T10:00:42.836Z,55.22
2023-05-20T10:01:42.930Z,55.12
2023-05-20T10:02:42.851Z,55.62
2023-05-20T10:03:44.268Z,54.49
2023-05-20T10:04:42.776Z,55.49
2023-05-20T10:05:42.812Z,53.47
2023-05-20T10:06:42.729Z,52.97
2023-05-20T10:07:42.850Z,53.09
2023-05-20T10:08:42.692Z,53.79
2023-05-20T10:09:42.743Z,53.09
2023-05-20T10:10:42.665Z,54.27
2023-05-20T10:11:44.188Z,53.67
2023-05-20T10:12:42.639Z,53.24
2023-05-20T10:13:42.715Z,53.24
2023-05-20T10:14:42.597Z,53.04
2023-05-20T10:15:42.623Z,52.94
2023-05-20T10:16:42.560Z,53.04
2023-05-20T10:17:42.612Z,53.42
2023-05-20T10:18:42.557Z,54.24
2023-05-20T10:19:42.614Z,51.97
2023-05-20T10:20:42.495Z,52.57
2023-05-20T10:21:42.478Z,53.17
2023-05-20T10:22:42.537Z,53.84
2023-05-20T10:23:42.461Z,51.92
2023-05-20T10:24:42.567Z,52.44
2023-05-20T10:25:42.419Z,52.25
2023-05-20T10:26:42.455Z,52.84
2023-05-20T10:27:42.394Z,52.97
2023-05-20T10:28:42.479Z,53.17
2023-05-20T10:29:42.354Z,53.30
2023-05-20T10:30:44.366Z,53.59
2023-05-20T10:31:42.313Z,52.99
2023-05-20T10:32:42.389Z,53.79
2023-05-20T10:33:42.387Z,55.27
2023-05-20T10:34:42.288Z,55.24
2023-05-20T10:35:42.315Z,55.54
2023-05-20T10:36:42.820Z,54.79
2023-05-20T10:37:42.252Z,53.27
2023-05-20T10:38:42.202Z,53.17
2023-05-20T10:39:42.255Z,52.02
2023-05-20T10:40:42.193Z,51.84
2023-05-20T10:41:42.258Z,53.04
2023-05-20T10:42:42.153Z,53.81
2023-05-20T10:43:42.146Z,53.22
2023-05-20T10:44:42.171Z,53.39
2023-05-20T10:45:42.087Z,53.27
2023-05-20T10:47:00.010Z,52.97
2023-05-20T10:47:42.146Z,53.24
2023-05-20T10:48:42.147Z,51.65
2023-05-20T10:49:42.029Z,52.74
2023-05-20T10:50:42.119Z,51.75
2023-05-20T10:51:42.006Z,51.84
2023-05-20T10:52:42.036Z,50.20
2023-05-20T10:53:41.968Z,50.32
2023-05-20T10:54:41.952Z,51.47
2023-05-20T10:55:42.065Z,51.89
2023-05-20T10:56:41.914Z,53.52
2023-05-20T10:57:41.959Z,53.32
2023-05-20T10:58:41.886Z,53.49
2023-05-20T10:59:41.881Z,52.82
2023-05-20T11:00:41.901Z,53.74
2023-05-20T11:01:41.984Z,54.44
2023-05-20T11:02:41.884Z,55.12
2023-05-20T11:03:41.992Z,55.42
2023-05-20T11:04:41.795Z,53.57
2023-05-20T11:05:41.772Z,53.67
2023-05-20T11:06:41.818Z,53.27
2023-05-20T11:07:41.765Z,53.34
2023-05-20T11:08:41.856Z,54.44
2023-05-20T11:09:41.718Z,53.42
2023-05-20T11:10:41.700Z,54.19
2023-05-20T11:11:41.694Z,52.19
2023-05-20T11:12:41.802Z,52.59
2023-05-20T11:13:41.670Z,53.09
2023-05-20T11:14:41.673Z,52.49
2023-05-20T11:15:41.622Z,52.27
2023-05-20T11:16:41.730Z,52.29
2023-05-20T11:17:41.693Z,52.49
2023-05-20T11:18:41.658Z,53.56
2023-05-20T11:19:41.560Z,52.64
2023-05-20T11:20:41.616Z,51.45
2023-05-20T11:21:41.535Z,51.07
2023-05-20T11:22:41.548Z,51.89
2023-05-20T11:23:41.530Z,53.47
2023-05-20T11:24:41.490Z,52.97
2023-05-20T11:25:41.565Z,52.74
2023-05-20T11:26:41.575Z,52.14
2023-05-20T11:27:41.451Z,52.25
2023-05-20T11:28:41.469Z,51.54
2023-05-20T11:29:41.410Z,51.65
2023-05-20T11:30:41.501Z,52.14
2023-05-20T11:31:41.399Z,50.47
2023-05-20T11:32:41.439Z,52.17
2023-05-20T11:33:41.350Z,52.97
2023-05-20T11:34:41.417Z,52.47
2023-05-20T11:35:41.316Z,53.14
2023-05-20T11:36:41.312Z,53.22
2023-05-20T11:37:41.301Z,51.92
2023-05-20T11:38:41.347Z,53.02
2023-05-20T11:39:41.274Z,51.72
2023-05-20T11:40:49.780Z,51.29
2023-05-20T11:41:41.224Z,51.22
2023-05-20T11:42:41.237Z,50.43
2023-05-20T11:43:41.192Z,52.09
2023-05-20T11:44:41.284Z,51.27
2023-05-20T11:45:41.189Z,51.35
2023-05-20T11:46:42.350Z,50.63
2023-05-20T11:47:41.186Z,51.20
2023-05-20T11:48:41.126Z,49.61
2023-05-20T11:49:41.210Z,50.01
2023-05-20T11:50:41.092Z,49.80
2023-05-20T11:51:41.133Z,47.89
2023-05-20T11:52:41.076Z,49.49
2023-05-20T11:53:41.068Z,49.78
2023-05-20T11:54:41.043Z,50.38
2023-05-20T11:55:41.049Z,50.50
2023-05-20T11:56:41.014Z,50.38
2023-05-20T11:57:41.060Z,49.29
2023-05-20T11:58:40.979Z,51.25
2023-05-20T11:59:41.094Z,52.44
2023-05-20T12:00:51.296Z,48.35
2023-05-20T12:01:40.942Z,48.65
2023-05-20T12:02:41.051Z,48.94
2023-05-20T12:03:41.192Z,48.44
2023-05-20T12:04:40.930Z,49.56
2023-05-20T12:05:40.913Z,49.16
2023-05-20T12:06:40.886Z,48.25
2023-05-20T12:07:40.930Z,49.26
2023-05-20T12:08:40.840Z,48.74
2023-05-20T12:09:40.836Z,48.05
2023-05-20T12:10:40.822Z,47.77
2023-05-20T12:11:40.881Z,47.85
2023-05-20T12:12:40.800Z,48.74
2023-05-20T12:13:40.889Z,47.83
2023-05-20T12:14:40.902Z,50.18
2023-05-20T12:15:40.825Z,49.66
2023-05-20T12:16:40.746Z,47.68
2023-05-20T12:17:40.818Z,48.27
2023-05-20T12:18:40.782Z,47.96
2023-05-20T12:19:42.025Z,47.68
2023-05-20T12:20:40.695Z,48.10
2023-05-20T12:21:40.730Z,48.02
2023-05-20T12:22:40.669Z,46.24
2023-05-20T12:23:40.738Z,49.91
2023-05-20T12:24:40.627Z,50.68
2023-05-20T12:25:40.657Z,50.18
2023-05-20T12:26:40.615Z,48.00
2023-05-20T12:27:40.662Z,48.40
2023-05-20T12:28:40.581Z,47.92
2023-05-20T12:29:40.577Z,47.05
2023-05-20T12:30:40.544Z,51.03
2023-05-20T12:31:40.582Z,50.01
2023-05-20T12:32:40.561Z,49.59
2023-05-20T12:33:40.604Z,49.17
2023-05-20T12:34:40.501Z,48.18
2023-05-20T12:35:40.532Z,47.90
2023-05-20T12:36:40.476Z,48.60
2023-05-20T12:37:40.537Z,48.90
2023-05-20T12:38:40.442Z,48.40
2023-05-20T12:39:40.446Z,49.21
2023-05-20T12:40:40.412Z,49.81
2023-05-20T12:41:40.432Z,49.19
2023-05-20T12:42:40.409Z,47.61
2023-05-20T12:43:40.486Z,46.95
2023-05-20T12:44:40.373Z,48.49
2023-05-20T12:45:40.397Z,49.08
2023-05-20T12:46:40.358Z,49.88
2023-05-20T12:47:40.362Z,49.11
2023-05-20T12:48:42.565Z,48.89
2023-05-20T12:49:40.296Z,48.49
2023-05-20T12:50:40.313Z,49.78
2023-05-20T12:51:40.284Z,49.61
2023-05-20T12:52:40.274Z,49.51